Los Lunas, NM (87031)

19:21:MST den 04. desember 2016 (GMT -0700)
Valencia Y | | Change Station

H.o.h 4852 ft 34.81 °N, 106.70 °W | Updated 24 seconds ago

Clear
Klart
30.9 °F
Feels Like 31 °F
N
0.0
Vind Variabel Vind from
Gusts 0.0 mph

I dag
High -- | Low -- °F
--% Chance of Precip.
I går
High -- | Low -- °F
Precip. -- tommer
Lufttrykk 30.07 tommer
Sikt 10.0 eng. mil
Skyet Klart
Nedkjølingseffekt 31 °F
Duggpunkt 15 °F
Fuktighet 52%
Regn 0.00 tommer
Snødybde Not available.
6:59 AM 4:55 PM
Økende sigd, 27% visible
METAR KE80 050215Z AUTO 00000KT 10SM CLR 03/M10 A3007 RMK AO2 T00261096
Lufttrykk 30.07 tommer
Sikt 10.0 eng. mil
Skyet Klart
Nedkjølingseffekt 31 °F
Duggpunkt 15 °F
Fuktighet 52%
Regn 0.00 tommer
Snødybde Not available.
6:59 AM 4:55 PM
Økende sigd, 27% visible
METAR KE80 050215Z AUTO 00000KT 10SM CLR 03/M10 A3007 RMK AO2 T00261096

10-Day Weather Forecast

Almanac

Astronomi

Dec. 04, 2016 Oppgang Nedgang
Virkelig tid
Tussmørke
Nautisk skumring
Astronomisk skumring
Månen
Lengde av synlig lys
Dagens lengde
Tomorrow will be .
, % of the Moon is Illuminated

Dagens maks og min

State Highs State Lows

Community

WunderPhotos

Upload Photos

1,955,746 photos uploaded!

WunderBlog® & News

Nearby

Luftkvalitet

  Luftkvalitet AQ Indeks Forurensing
Not available.

Snødybde

Stasjon Depth Høyde over havet

Earthquake Activity

By Distance Mag. Time & Date
Minimum magnitude displayed is 2.5.

Coastal Water Temperatures

Sted Temperatur

Stations

Nearby Weather Stations

Stasjonens lokasjon Temp. Nedkjølingseffekt Duggpunkt Fuktighet Vind Precip. H.o.h Oppdatert Type
                   

Watches & Warnings

There are currently no watches in effect.